LNG Dream — C6VO5 — position and weather

sailwx.info

Track history (hours):
 
Tides and Currents Weather Stations Pressure Air Temp Water Temp Dewpoint Dewpoint Depression Visibility Wind Speed Wind Dir Waves Ship Positions

LNG Dream

Last reported at 2014-Aug-13 03:32 UTC. Time now 2014-Aug-29 08:08 UTC.
Position N 34°02' E 134°56'.
Warning: this ship's position is 16 days out of date.

Length 289.6 m; beam 49 m.

Type: Ship (hazmat cat A). MMSI: 309065000.

Date/timePositionNaut miles runAvg speedWind from/ knotsBaromVisibWave heightAir tempDewpointWater temp
2014-Aug-13 03:32N 34°02' E 134°56'1212.1
2014-Aug-13 02:33N 34°14' E 134°58'1212.0
2014-Aug-13 01:33N 34°25' E 135°05'1413.9
2014-Aug-13 00:33N 34°32' E 135°19'5 4.5
2014-Aug-12 23:32N 34°33' E 135°24'0 0.0
2014-Aug-12 22:32N 34°33' E 135°24'0 0.0
2014-Aug-11 23:20N 34°33' E 135°24'0 0.5
2014-Aug-11 22:32N 34°33' E 135°24'9 8.7
2014-Aug-11 21:33N 34°30' E 135°14'1413.8
2014-Aug-11 20:33N 34°21' E 135°02'1110.8
2014-Aug-11 19:33N 34°10' E 134°60'1010.1
2014-Aug-11 18:33N 33°60' E 134°59'  
Track history (hours):
 
Tides and Currents Weather Stations Pressure Air Temp Water Temp Dewpoint Dewpoint Depression Visibility Wind Speed Wind Dir Waves Ship Positions

LNG Dream

Last reported at 2014-Aug-13 03:32 UTC. Time now 2014-Aug-29 08:08 UTC.
Position N 34°02' E 134°56'.
Warning: this ship's position is 16 days out of date.

Length 289.6 m; beam 49 m.

Type: Ship (hazmat cat A). MMSI: 309065000.

Date/timePositionNaut miles runAvg speedWind from/ knotsBaromVisibWave heightAir tempDewpointWater temp
2014-Aug-13 03:32N 34°02' E 134°56'1212.1
2014-Aug-13 02:33N 34°14' E 134°58'1212.0
2014-Aug-13 01:33N 34°25' E 135°05'1413.9
2014-Aug-13 00:33N 34°32' E 135°19'5 4.5
2014-Aug-12 23:32N 34°33' E 135°24'0 0.0
2014-Aug-12 22:32N 34°33' E 135°24'0 0.0
2014-Aug-11 23:20N 34°33' E 135°24'0 0.5
2014-Aug-11 22:32N 34°33' E 135°24'9 8.7
2014-Aug-11 21:33N 34°30' E 135°14'1413.8
2014-Aug-11 20:33N 34°21' E 135°02'1110.8
2014-Aug-11 19:33N 34°10' E 134°60'1010.1
2014-Aug-11 18:33N 33°60' E 134°59'  

Dump ship's entire track history